sensor_id;sensor_type;location;lat;lon;timestamp;temperature;humidity
16253;DHT22;8234;41.480;2.306;2022-07-05T00:05:12;23.20;99.90
16253;DHT22;8234;41.480;2.306;2022-07-05T00:15:17;23.20;99.90
16253;DHT22;8234;41.480;2.306;2022-07-05T00:25:21;23.20;99.90
16253;DHT22;8234;41.480;2.306;2022-07-05T00:35:27;23.10;99.90
16253;DHT22;8234;41.480;2.306;2022-07-05T00:45:31;22.90;99.90
16253;DHT22;8234;41.480;2.306;2022-07-05T00:55:36;22.90;99.90
16253;DHT22;8234;41.480;2.306;2022-07-05T01:05:40;22.90;99.90
16253;DHT22;8234;41.480;2.306;2022-07-05T01:15:46;22.80;99.90
16253;DHT22;8234;41.480;2.306;2022-07-05T01:25:51;22.80;99.90
16253;DHT22;8234;41.480;2.306;2022-07-05T01:35:57;22.90;99.90
16253;DHT22;8234;41.480;2.306;2022-07-05T01:46:04;22.80;99.90
16253;DHT22;8234;41.480;2.306;2022-07-05T01:56:08;23.10;99.90
16253;DHT22;8234;41.480;2.306;2022-07-05T02:06:13;23.00;99.90
16253;DHT22;8234;41.480;2.306;2022-07-05T02:16:17;22.70;99.90
16253;DHT22;8234;41.480;2.306;2022-07-05T02:26:22;22.70;99.90
16253;DHT22;8234;41.480;2.306;2022-07-05T02:36:26;22.80;99.90
16253;DHT22;8234;41.480;2.306;2022-07-05T02:46:31;22.60;99.90
16253;DHT22;8234;41.480;2.306;2022-07-05T02:56:35;22.60;99.90
16253;DHT22;8234;41.480;2.306;2022-07-05T03:06:41;22.60;99.90
16253;DHT22;8234;41.480;2.306;2022-07-05T03:16:49;22.70;99.90
16253;DHT22;8234;41.480;2.306;2022-07-05T03:26:55;22.70;99.90
16253;DHT22;8234;41.480;2.306;2022-07-05T03:36:59;22.80;99.90
16253;DHT22;8234;41.480;2.306;2022-07-05T03:47:04;23.10;99.90
16253;DHT22;8234;41.480;2.306;2022-07-05T03:57:08;23.10;99.90
16253;DHT22;8234;41.480;2.306;2022-07-05T04:07:13;23.40;99.90
16253;DHT22;8234;41.480;2.306;2022-07-05T04:17:17;23.40;99.90
16253;DHT22;8234;41.480;2.306;2022-07-05T04:27:23;23.30;99.90
16253;DHT22;8234;41.480;2.306;2022-07-05T04:37:27;23.20;99.90
16253;DHT22;8234;41.480;2.306;2022-07-05T04:47:32;23.20;99.90
16253;DHT22;8234;41.480;2.306;2022-07-05T04:57:37;23.40;99.90
16253;DHT22;8234;41.480;2.306;2022-07-05T05:07:43;23.50;99.90
16253;DHT22;8234;41.480;2.306;2022-07-05T05:17:47;23.60;99.90
16253;DHT22;8234;41.480;2.306;2022-07-05T05:27:52;24.00;99.90
16253;DHT22;8234;41.480;2.306;2022-07-05T05:37:56;24.50;99.90
16253;DHT22;8234;41.480;2.306;2022-07-05T05:48:01;25.20;99.90
16253;DHT22;8234;41.480;2.306;2022-07-05T05:58:12;25.70;99.90
16253;DHT22;8234;41.480;2.306;2022-07-05T06:08:18;25.60;99.90
16253;DHT22;8234;41.480;2.306;2022-07-05T06:18:22;25.70;99.90
16253;DHT22;8234;41.480;2.306;2022-07-05T06:28:27;25.90;99.90
16253;DHT22;8234;41.480;2.306;2022-07-05T06:38:31;26.30;99.90
16253;DHT22;8234;41.480;2.306;2022-07-05T06:48:36;26.60;99.90
16253;DHT22;8234;41.480;2.306;2022-07-05T06:58:40;27.00;99.90
16253;DHT22;8234;41.480;2.306;2022-07-05T07:08:45;27.20;99.90
16253;DHT22;8234;41.480;2.306;2022-07-05T07:19:05;27.30;99.90
16253;DHT22;8234;41.480;2.306;2022-07-05T07:29:15;27.70;99.90
16253;DHT22;8234;41.480;2.306;2022-07-05T07:39:18;28.20;99.90
16253;DHT22;8234;41.480;2.306;2022-07-05T07:49:22;28.50;99.90
16253;DHT22;8234;41.480;2.306;2022-07-05T07:59:26;28.70;99.90
16253;DHT22;8234;41.480;2.306;2022-07-05T08:09:31;28.80;99.90
16253;DHT22;8234;41.480;2.306;2022-07-05T08:19:35;27.80;99.90
16253;DHT22;8234;41.480;2.306;2022-07-05T08:29:58;27.40;99.90
16253;DHT22;8234;41.480;2.306;2022-07-05T08:40:06;27.50;99.90
16253;DHT22;8234;41.480;2.306;2022-07-05T08:50:12;27.30;99.90
16253;DHT22;8234;41.480;2.306;2022-07-05T09:00:18;27.30;99.90
16253;DHT22;8234;41.480;2.306;2022-07-05T09:10:26;27.50;99.90
16253;DHT22;8234;41.480;2.306;2022-07-05T09:20:29;28.10;99.90
16253;DHT22;8234;41.480;2.306;2022-07-05T09:30:36;28.00;99.90
16253;DHT22;8234;41.480;2.306;2022-07-05T09:40:46;27.90;99.90
16253;DHT22;8234;41.480;2.306;2022-07-05T09:50:55;28.20;99.90
16253;DHT22;8234;41.480;2.306;2022-07-05T10:01:28;28.20;99.90
16253;DHT22;8234;41.480;2.306;2022-07-05T10:11:34;28.50;99.90
16253;DHT22;8234;41.480;2.306;2022-07-05T10:21:41;28.70;99.90
16253;DHT22;8234;41.480;2.306;2022-07-05T10:32:08;28.90;99.90
16253;DHT22;8234;41.480;2.306;2022-07-05T10:42:13;29.10;99.90
16253;DHT22;8234;41.480;2.306;2022-07-05T10:52:25;29.10;99.90
16253;DHT22;8234;41.480;2.306;2022-07-05T11:02:29;29.30;99.90
16253;DHT22;8234;41.480;2.306;2022-07-05T11:12:37;29.10;99.90
16253;DHT22;8234;41.480;2.306;2022-07-05T11:33:25;30.10;99.90
16253;DHT22;8234;41.480;2.306;2022-07-05T11:43:29;30.60;99.90
16253;DHT22;8234;41.480;2.306;2022-07-05T11:53:36;30.60;99.90
16253;DHT22;8234;41.480;2.306;2022-07-05T12:03:59;30.90;99.90
16253;DHT22;8234;41.480;2.306;2022-07-05T12:14:06;31.90;99.90
16253;DHT22;8234;41.480;2.306;2022-07-05T12:24:14;32.20;99.90
16253;DHT22;8234;41.480;2.306;2022-07-05T12:34:22;32.60;99.90
16253;DHT22;8234;41.480;2.306;2022-07-05T12:44:26;32.90;99.90
16253;DHT22;8234;41.480;2.306;2022-07-05T12:54:31;32.90;99.90
16253;DHT22;8234;41.480;2.306;2022-07-05T13:04:53;33.30;99.90
16253;DHT22;8234;41.480;2.306;2022-07-05T13:14:58;33.40;99.90
16253;DHT22;8234;41.480;2.306;2022-07-05T13:25:02;33.30;99.90
16253;DHT22;8234;41.480;2.306;2022-07-05T13:35:08;33.40;99.90
16253;DHT22;8234;41.480;2.306;2022-07-05T13:45:13;33.20;99.90
16253;DHT22;8234;41.480;2.306;2022-07-05T13:55:19;33.70;99.90
16253;DHT22;8234;41.480;2.306;2022-07-05T14:05:22;33.60;99.90
16253;DHT22;8234;41.480;2.306;2022-07-05T14:15:27;33.80;99.90
16253;DHT22;8234;41.480;2.306;2022-07-05T14:25:31;33.50;99.90
16253;DHT22;8234;41.480;2.306;2022-07-05T14:35:37;33.80;99.90
16253;DHT22;8234;41.480;2.306;2022-07-05T14:45:41;34.50;99.90
16253;DHT22;8234;41.480;2.306;2022-07-05T14:55:46;34.40;99.90
16253;DHT22;8234;41.480;2.306;2022-07-05T15:05:51;35.40;99.90
16253;DHT22;8234;41.480;2.306;2022-07-05T15:15:57;34.40;99.90
16253;DHT22;8234;41.480;2.306;2022-07-05T15:26:01;34.10;99.90
16253;DHT22;8234;41.480;2.306;2022-07-05T15:36:06;33.40;99.90
16253;DHT22;8234;41.480;2.306;2022-07-05T15:46:10;33.80;99.90
16253;DHT22;8234;41.480;2.306;2022-07-05T15:56:15;33.00;99.90
16253;DHT22;8234;41.480;2.306;2022-07-05T16:06:19;33.30;99.90
16253;DHT22;8234;41.480;2.306;2022-07-05T16:16:24;33.20;99.90
16253;DHT22;8234;41.480;2.306;2022-07-05T16:26:28;33.50;99.90
16253;DHT22;8234;41.480;2.306;2022-07-05T16:36:33;32.40;99.90
16253;DHT22;8234;41.480;2.306;2022-07-05T16:46:37;31.70;99.90
16253;DHT22;8234;41.480;2.306;2022-07-05T16:56:43;31.10;99.90
16253;DHT22;8234;41.480;2.306;2022-07-05T17:06:47;28.80;99.90
16253;DHT22;8234;41.480;2.306;2022-07-05T17:16:52;28.20;99.90
16253;DHT22;8234;41.480;2.306;2022-07-05T17:26:56;27.90;99.90
16253;DHT22;8234;41.480;2.306;2022-07-05T17:37:01;28.20;99.90
16253;DHT22;8234;41.480;2.306;2022-07-05T17:47:05;27.70;99.90
16253;DHT22;8234;41.480;2.306;2022-07-05T17:57:11;27.40;99.90
16253;DHT22;8234;41.480;2.306;2022-07-05T18:07:15;27.60;99.90
16253;DHT22;8234;41.480;2.306;2022-07-05T18:17:20;27.60;99.90
16253;DHT22;8234;41.480;2.306;2022-07-05T18:27:24;27.70;99.90
16253;DHT22;8234;41.480;2.306;2022-07-05T18:37:29;27.20;99.90
16253;DHT22;8234;41.480;2.306;2022-07-05T18:47:32;27.00;99.90
16253;DHT22;8234;41.480;2.306;2022-07-05T18:57:38;26.60;99.90
16253;DHT22;8234;41.480;2.306;2022-07-05T19:07:41;26.90;99.90
16253;DHT22;8234;41.480;2.306;2022-07-05T19:18:04;26.90;99.90
16253;DHT22;8234;41.480;2.306;2022-07-05T19:28:08;26.70;99.90
16253;DHT22;8234;41.480;2.306;2022-07-05T19:38:19;26.60;99.90
16253;DHT22;8234;41.480;2.306;2022-07-05T19:48:23;26.60;99.90
16253;DHT22;8234;41.480;2.306;2022-07-05T19:58:29;25.60;99.90
16253;DHT22;8234;41.480;2.306;2022-07-05T20:08:33;25.60;99.90
16253;DHT22;8234;41.480;2.306;2022-07-05T20:18:38;26.00;99.90
16253;DHT22;8234;41.480;2.306;2022-07-05T20:28:42;26.60;99.90
16253;DHT22;8234;41.480;2.306;2022-07-05T20:38:47;26.80;99.90
16253;DHT22;8234;41.480;2.306;2022-07-05T20:48:51;26.30;99.90
16253;DHT22;8234;41.480;2.306;2022-07-05T20:58:56;26.70;99.90
16253;DHT22;8234;41.480;2.306;2022-07-05T21:09:00;26.70;99.90
16253;DHT22;8234;41.480;2.306;2022-07-05T21:19:05;26.50;99.90
16253;DHT22;8234;41.480;2.306;2022-07-05T21:29:09;25.10;99.90
16253;DHT22;8234;41.480;2.306;2022-07-05T21:39:13;24.80;99.90
16253;DHT22;8234;41.480;2.306;2022-07-05T21:49:17;25.40;99.90
16253;DHT22;8234;41.480;2.306;2022-07-05T21:59:22;25.60;99.90
16253;DHT22;8234;41.480;2.306;2022-07-05T22:09:44;26.00;99.90
16253;DHT22;8234;41.480;2.306;2022-07-05T22:19:50;26.10;99.90
16253;DHT22;8234;41.480;2.306;2022-07-05T22:29:53;26.00;99.90
16253;DHT22;8234;41.480;2.306;2022-07-05T22:40:01;25.40;99.90
16253;DHT22;8234;41.480;2.306;2022-07-05T22:50:05;25.60;99.90
16253;DHT22;8234;41.480;2.306;2022-07-05T23:00:12;25.30;99.90
16253;DHT22;8234;41.480;2.306;2022-07-05T23:10:16;25.30;99.90
16253;DHT22;8234;41.480;2.306;2022-07-05T23:20:21;25.00;99.90
16253;DHT22;8234;41.480;2.306;2022-07-05T23:30:25;24.80;99.90
16253;DHT22;8234;41.480;2.306;2022-07-05T23:40:30;24.80;99.90
16253;DHT22;8234;41.480;2.306;2022-07-05T23:50:34;24.80;99.90
